Time;durP1;ratioP1;P1;durP2;ratioP2;P2;SDS_P1;SDS_P2;PMS_P1;PMS_P2;Temp;Humidity;BMP_temperature;BMP_pressure;BME280_temperature;BME280_humidity;BME280_pressure;Samples;Min_cycle;Max_cycle;Signal;HPM_P1;HPM_P2
2021/07/16 00:00:30;;;;;;;12.50;6.68;;;20.70;99.90;;;;;;2106681;28;20024;-69
2021/07/16 00:01:32;;;;;;;17.40;7.68;;;20.80;99.90;;;;;;2106330;28;20024;-69
2021/07/16 00:02:32;;;;;;;12.35;6.57;;;20.70;99.90;;;;;;2107347;28;20031;-69
2021/07/16 00:03:33;;;;;;;17.52;6.97;;;20.70;99.90;;;;;;2107324;28;20099;-70
2021/07/16 00:04:34;;;;;;;14.93;7.18;;;20.70;99.90;;;;;;2107188;28;20085;-69
2021/07/16 00:05:34;;;;;;;15.68;6.90;;;20.80;99.90;;;;;;2107562;28;20107;-69
2021/07/16 00:06:36;;;;;;;15.85;7.35;;;20.80;99.90;;;;;;2107293;28;20375;-69
2021/07/16 00:07:38;;;;;;;19.77;7.63;;;20.70;99.90;;;;;;2107477;28;20020;-69
2021/07/16 00:08:38;;;;;;;15.90;7.18;;;20.70;99.90;;;;;;2107327;28;20521;-69
2021/07/16 00:09:39;;;;;;;18.77;7.75;;;20.70;99.90;;;;;;2107606;28;20485;-69
2021/07/16 00:10:41;;;;;;;16.08;6.70;;;20.70;99.90;;;;;;2107212;28;20020;-70
2021/07/16 00:11:42;;;;;;;15.05;6.97;;;20.70;99.90;;;;;;2106509;28;20039;-70
2021/07/16 00:12:43;;;;;;;18.98;6.95;;;20.70;99.90;;;;;;2107090;28;20028;-70
2021/07/16 00:13:43;;;;;;;13.70;6.93;;;20.70;99.90;;;;;;2107568;28;20085;-69
2021/07/16 00:14:44;;;;;;;17.13;7.18;;;20.70;99.90;;;;;;2107167;28;20036;-69
2021/07/16 00:15:45;;;;;;;17.00;6.78;;;20.70;99.90;;;;;;2106678;28;20036;-69
2021/07/16 00:16:45;;;;;;;18.17;7.78;;;20.70;99.90;;;;;;2106552;28;20054;-69
2021/07/16 00:17:46;;;;;;;14.82;6.53;;;20.70;99.90;;;;;;2107291;28;20460;-69
2021/07/16 00:18:47;;;;;;;18.35;7.80;;;20.60;99.90;;;;;;2107284;28;20039;-69
2021/07/16 00:19:47;;;;;;;14.80;6.85;;;20.60;99.90;;;;;;2107292;28;20047;-69
2021/07/16 00:20:48;;;;;;;16.67;7.28;;;20.70;99.90;;;;;;2107101;28;20459;-69
2021/07/16 00:21:49;;;;;;;16.63;6.70;;;20.70;99.90;;;;;;2106700;28;20128;-69
2021/07/16 00:22:49;;;;;;;13.70;7.03;;;20.70;99.90;;;;;;2107054;28;20032;-69
2021/07/16 00:23:50;;;;;;;15.82;7.07;;;20.70;99.90;;;;;;2107327;28;20028;-69
2021/07/16 00:24:50;;;;;;;16.52;6.75;;;20.70;99.90;;;;;;2107232;28;20032;-69
2021/07/16 00:25:51;;;;;;;19.20;6.68;;;20.60;99.90;;;;;;2107216;28;20103;-70
2021/07/16 00:26:52;;;;;;;14.45;6.93;;;20.60;99.90;;;;;;2107165;28;20068;-69
2021/07/16 00:27:52;;;;;;;12.27;7.20;;;20.60;99.90;;;;;;2107321;28;20082;-69
2021/07/16 00:28:53;;;;;;;13.85;7.72;;;20.60;99.90;;;;;;2106653;28;20033;-69
2021/07/16 00:29:53;;;;;;;18.83;7.68;;;20.60;99.90;;;;;;2106343;28;20020;-70
2021/07/16 00:30:54;;;;;;;14.60;6.60;;;20.60;99.90;;;;;;2107369;28;20097;-70
2021/07/16 00:31:55;;;;;;;13.43;6.13;;;20.60;99.90;;;;;;2106569;28;20153;-69
2021/07/16 00:32:55;;;;;;;17.50;7.30;;;20.60;99.90;;;;;;2107235;28;20028;-69
2021/07/16 00:33:56;;;;;;;13.48;6.75;;;20.50;99.90;;;;;;2107034;28;20028;-69
2021/07/16 00:34:56;;;;;;;10.40;5.82;;;20.50;99.90;;;;;;2107103;28;20420;-69
2021/07/16 00:35:57;;;;;;;15.77;6.78;;;20.50;99.90;;;;;;2107029;28;20111;-70
2021/07/16 00:36:58;;;;;;;14.05;7.57;;;20.50;99.90;;;;;;2107090;28;20403;-70
2021/07/16 00:37:58;;;;;;;14.55;7.30;;;20.50;99.90;;;;;;2106984;28;20020;-69
2021/07/16 00:38:59;;;;;;;16.73;7.65;;;20.50;99.90;;;;;;2107225;28;20150;-69
2021/07/16 00:40:00;;;;;;;12.23;6.30;;;20.50;99.90;;;;;;2107191;28;20495;-69
2021/07/16 00:41:01;;;;;;;15.45;6.88;;;20.50;99.90;;;;;;2107092;28;20417;-69
2021/07/16 00:42:02;;;;;;;13.38;6.63;;;20.50;99.90;;;;;;2106567;28;20073;-70
2021/07/16 00:43:03;;;;;;;14.35;6.65;;;20.50;99.90;;;;;;2107141;28;20027;-69
2021/07/16 00:44:04;;;;;;;12.57;7.07;;;20.50;99.90;;;;;;2106876;28;20024;-69
2021/07/16 00:45:10;;;;;;;16.35;6.80;;;20.50;99.90;;;;;;2107149;28;20050;-69
2021/07/16 00:46:10;;;;;;;15.52;7.10;;;20.50;99.90;;;;;;2106568;28;20559;-69
2021/07/16 00:47:11;;;;;;;11.68;6.35;;;20.50;99.90;;;;;;2106786;28;20360;-69
2021/07/16 00:48:11;;;;;;;13.45;7.18;;;20.40;99.90;;;;;;2106619;28;20020;-70
2021/07/16 00:49:12;;;;;;;12.25;6.40;;;20.50;99.90;;;;;;2107296;28;20042;-69
2021/07/16 00:50:18;;;;;;;15.27;6.80;;;20.50;99.90;;;;;;2107002;28;20039;-69
2021/07/16 00:51:19;;;;;;;14.43;6.60;;;20.50;99.90;;;;;;2107422;28;20024;-69
2021/07/16 00:52:21;;;;;;;13.85;6.85;;;20.50;99.90;;;;;;2106619;28;20043;-69
2021/07/16 00:53:21;;;;;;;12.02;6.05;;;20.40;99.90;;;;;;2107066;28;20413;-70
2021/07/16 00:54:22;;;;;;;15.55;6.75;;;20.40;99.90;;;;;;2106911;28;20032;-69
2021/07/16 00:55:24;;;;;;;12.30;6.55;;;20.40;99.90;;;;;;2106547;28;20028;-70
2021/07/16 00:56:25;;;;;;;15.23;6.95;;;20.40;99.90;;;;;;2105869;28;20556;-69
2021/07/16 00:57:25;;;;;;;17.35;7.10;;;20.30;99.90;;;;;;2106914;28;20039;-69
2021/07/16 00:58:26;;;;;;;18.27;6.53;;;20.30;99.90;;;;;;2106781;28;20023;-69
2021/07/16 00:59:26;;;;;;;16.58;6.88;;;20.30;99.90;;;;;;2107534;28;20024;-69
2021/07/16 01:00:27;;;;;;;17.30;7.55;;;20.30;99.90;;;;;;2106520;28;20093;-69
2021/07/16 01:01:27;;;;;;;18.50;6.20;;;20.30;99.90;;;;;;2106811;28;20091;-69
2021/07/16 01:02:29;;;;;;;15.02;6.35;;;20.30;99.90;;;;;;2106073;28;20031;-69
2021/07/16 01:03:30;;;;;;;14.20;6.60;;;20.30;99.90;;;;;;2106185;28;20077;-69
2021/07/16 01:04:30;;;;;;;15.35;6.68;;;20.30;99.90;;;;;;2106003;28;20024;-69
2021/07/16 01:05:31;;;;;;;18.13;7.18;;;20.30;99.90;;;;;;2106811;28;20028;-69
2021/07/16 01:06:32;;;;;;;21.55;7.53;;;20.30;99.90;;;;;;2106831;28;20383;-69
2021/07/16 01:07:33;;;;;;;18.33;6.72;;;20.30;99.90;;;;;;2106911;28;20058;-70
2021/07/16 01:08:33;;;;;;;16.05;7.13;;;20.20;99.90;;;;;;2106739;28;20020;-69
2021/07/16 01:09:34;;;;;;;14.45;6.80;;;20.30;99.90;;;;;;2106811;28;20052;-70
2021/07/16 01:10:35;;;;;;;18.55;7.03;;;20.30;99.90;;;;;;2106920;28;20052;-69
2021/07/16 01:11:36;;;;;;;15.93;5.85;;;20.30;99.90;;;;;;2106145;28;20028;-69
2021/07/16 01:12:38;;;;;;;13.85;6.43;;;20.30;99.90;;;;;;2106822;28;20013;-70
2021/07/16 01:13:38;;;;;;;11.95;6.07;;;20.20;99.90;;;;;;2106827;28;20020;-69
2021/07/16 01:14:39;;;;;;;12.43;5.85;;;20.20;99.90;;;;;;2106935;28;20048;-69
2021/07/16 01:15:41;;;;;;;16.13;6.88;;;20.20;99.90;;;;;;2106721;28;20495;-69
2021/07/16 01:16:42;;;;;;;16.35;6.50;;;20.20;99.90;;;;;;2106874;28;20104;-70
2021/07/16 01:17:43;;;;;;;17.55;6.63;;;20.20;99.90;;;;;;2106014;28;20032;-69
2021/07/16 01:18:44;;;;;;;14.50;6.53;;;20.20;99.90;;;;;;2106192;28;20017;-69
2021/07/16 01:19:48;;;;;;;22.33;7.10;;;20.20;99.90;;;;;;2106753;28;20051;-69
2021/07/16 01:20:49;;;;;;;15.70;6.63;;;20.20;99.90;;;;;;2106705;28;20363;-69
2021/07/16 01:21:51;;;;;;;15.35;6.28;;;20.20;99.90;;;;;;2106012;28;20102;-69
2021/07/16 01:22:54;;;;;;;14.10;5.72;;;20.20;99.90;;;;;;2107042;28;20073;-69
2021/07/16 01:23:55;;;;;;;14.60;6.18;;;20.20;99.90;;;;;;2106615;28;20107;-69
2021/07/16 01:24:57;;;;;;;19.15;6.93;;;20.20;99.90;;;;;;2106883;28;20016;-69
2021/07/16 01:25:58;;;;;;;11.50;6.18;;;20.10;99.90;;;;;;2106905;28;20016;-69
2021/07/16 01:26:59;;;;;;;11.38;5.47;;;20.10;99.90;;;;;;2106755;28;20528;-69
2021/07/16 01:28:01;;;;;;;18.45;6.85;;;20.10;99.90;;;;;;2106616;28;20031;-69
2021/07/16 01:29:03;;;;;;;13.20;6.65;;;20.10;99.90;;;;;;2106638;28;20691;-69
2021/07/16 01:30:07;;;;;;;15.93;6.78;;;20.10;99.90;;;;;;2106576;28;20016;-69
2021/07/16 01:31:11;;;;;;;14.05;6.07;;;20.10;99.90;;;;;;2106703;28;20016;-69
2021/07/16 01:32:12;;;;;;;13.77;6.45;;;20.10;99.90;;;;;;2106173;28;20028;-70
2021/07/16 01:33:13;;;;;;;16.25;6.22;;;20.10;99.90;;;;;;2106786;28;20062;-69
2021/07/16 01:34:14;;;;;;;13.95;6.13;;;20.10;99.90;;;;;;2106966;28;20050;-69
2021/07/16 01:35:16;;;;;;;12.30;6.47;;;20.10;99.90;;;;;;2106617;28;20024;-69
2021/07/16 01:36:17;;;;;;;17.23;6.75;;;20.10;99.90;;;;;;2106453;28;20028;-69
2021/07/16 01:37:17;;;;;;;11.27;5.93;;;20.10;99.90;;;;;;2106800;28;20024;-69
2021/07/16 01:38:18;;;;;;;14.43;6.15;;;20.10;99.90;;;;;;2106379;28;20503;-70
2021/07/16 01:39:19;;;;;;;11.45;5.60;;;20.10;99.90;;;;;;2106866;28;20024;-70
2021/07/16 01:40:22;;;;;;;15.07;7.28;;;20.10;99.90;;;;;;2106623;28;20050;-69
2021/07/16 01:41:22;;;;;;;13.38;5.75;;;20.10;99.90;;;;;;2106407;28;20021;-69
2021/07/16 01:42:23;;;;;;;11.38;5.50;;;20.10;99.90;;;;;;2106205;28;20020;-69
2021/07/16 01:43:25;;;;;;;17.67;5.85;;;20.10;99.90;;;;;;2106659;28;20020;-69
2021/07/16 01:44:26;;;;;;;13.30;6.07;;;20.10;99.90;;;;;;2106593;28;20403;-69
2021/07/16 01:45:33;;;;;;;11.50;6.32;;;20.10;99.90;;;;;;2106394;28;20039;-69
2021/07/16 01:46:34;;;;;;;14.77;5.75;;;20.10;99.90;;;;;;2105915;28;20024;-69
2021/07/16 01:47:36;;;;;;;12.60;6.35;;;20.10;99.90;;;;;;2106582;28;20087;-69
2021/07/16 01:48:36;;;;;;;13.48;6.70;;;20.10;99.90;;;;;;2106390;28;20034;-69
2021/07/16 01:49:37;;;;;;;14.23;6.03;;;20.10;99.90;;;;;;2105948;28;20028;-70
2021/07/16 01:50:42;;;;;;;16.33;6.28;;;20.10;99.90;;;;;;2105613;28;20023;-69
2021/07/16 01:51:42;;;;;;;17.20;6.05;;;20.10;99.90;;;;;;2106032;28;20031;-69
2021/07/16 01:52:45;;;;;;;11.57;6.10;;;20.10;99.90;;;;;;2106212;28;20028;-69
2021/07/16 01:53:45;;;;;;;16.23;6.43;;;20.10;99.90;;;;;;2102189;28;20600;-69
2021/07/16 01:54:46;;;;;;;13.85;5.95;;;20.00;99.90;;;;;;2105887;28;20023;-69
2021/07/16 01:55:47;;;;;;;17.02;6.13;;;20.00;99.90;;;;;;2106238;28;20491;-69
2021/07/16 01:56:48;;;;;;;18.42;6.68;;;20.10;99.90;;;;;;2106485;28;20090;-69
2021/07/16 01:57:52;;;;;;;15.48;6.13;;;20.00;99.90;;;;;;2106393;28;20032;-69
2021/07/16 01:58:53;;;;;;;17.30;6.63;;;20.00;99.90;;;;;;2106557;28;20107;-69
2021/07/16 01:59:53;;;;;;;16.77;6.05;;;20.00;99.90;;;;;;2106191;28;20016;-69
2021/07/16 02:00:54;;;;;;;13.15;5.90;;;20.00;99.90;;;;;;2106178;28;20028;-69
2021/07/16 02:01:54;;;;;;;14.43;6.43;;;20.00;99.90;;;;;;2106053;28;20023;-70
2021/07/16 02:03:00;;;;;;;13.88;6.22;;;20.00;99.90;;;;;;2106547;28;20027;-70
2021/07/16 02:04:01;;;;;;;13.10;5.82;;;20.00;99.90;;;;;;2106209;28;20490;-69
2021/07/16 02:05:02;;;;;;;14.05;6.20;;;20.00;99.90;;;;;;2106572;28;20379;-69
2021/07/16 02:06:03;;;;;;;13.95;5.72;;;20.00;99.90;;;;;;2105814;28;20016;-70
2021/07/16 02:07:04;;;;;;;12.88;5.35;;;20.00;99.90;;;;;;2105762;28;20022;-69
2021/07/16 02:08:08;;;;;;;9.35;5.32;;;20.00;99.90;;;;;;2106605;28;20031;-69
2021/07/16 02:09:09;;;;;;;13.07;5.70;;;20.00;99.90;;;;;;2106443;28;20601;-69
2021/07/16 02:10:10;;;;;;;10.90;5.50;;;20.00;99.90;;;;;;2106321;28;20106;-69
2021/07/16 02:11:10;;;;;;;11.18;5.82;;;19.90;99.90;;;;;;2106205;28;20032;-69
2021/07/16 02:12:11;;;;;;;11.88;5.45;;;20.00;99.90;;;;;;2105817;28;20100;-69
2021/07/16 02:13:11;;;;;;;14.02;5.50;;;19.90;99.90;;;;;;2106456;28;20020;-69
2021/07/16 02:14:12;;;;;;;11.98;5.75;;;19.90;99.90;;;;;;2105583;28;20020;-69
2021/07/16 02:15:14;;;;;;;14.77;5.72;;;19.90;99.90;;;;;;2106196;28;20089;-70
2021/07/16 02:16:15;;;;;;;15.95;5.47;;;19.90;99.90;;;;;;2106530;28;20119;-69
2021/07/16 02:17:16;;;;;;;10.70;5.57;;;19.90;99.90;;;;;;2106232;28;20459;-69
2021/07/16 02:18:17;;;;;;;10.68;5.53;;;19.90;99.90;;;;;;2106515;28;20375;-69
2021/07/16 02:19:18;;;;;;;13.35;5.80;;;19.90;99.90;;;;;;2106198;28;20378;-69
2021/07/16 02:20:40;;;;;;;14.20;6.00;;;19.90;99.90;;;;;;2106444;28;20016;-69
2021/07/16 02:21:40;;;;;;;12.68;5.70;;;19.90;99.90;;;;;;2105241;28;20044;-69
2021/07/16 02:22:41;;;;;;;12.75;6.00;;;19.90;99.90;;;;;;2106278;28;20024;-69
2021/07/16 02:23:42;;;;;;;12.10;5.95;;;19.90;99.90;;;;;;2105560;28;20468;-70
2021/07/16 02:24:43;;;;;;;13.98;6.53;;;19.90;99.90;;;;;;2105684;28;20062;-69
2021/07/16 02:25:44;;;;;;;17.92;6.63;;;19.90;99.90;;;;;;2106490;28;20024;-69
2021/07/16 02:26:45;;;;;;;14.93;6.25;;;19.80;99.90;;;;;;2106310;28;20118;-69
2021/07/16 02:27:49;;;;;;;14.40;6.38;;;19.90;99.90;;;;;;2106205;28;20024;-69
2021/07/16 02:28:50;;;;;;;14.55;6.45;;;19.90;99.90;;;;;;2105629;28;20491;-69
2021/07/16 02:29:50;;;;;;;14.55;5.90;;;19.90;99.90;;;;;;2105501;28;20426;-69
2021/07/16 02:30:52;;;;;;;15.85;6.43;;;19.90;99.90;;;;;;2106194;28;20028;-69
2021/07/16 02:31:52;;;;;;;14.85;6.80;;;19.90;99.90;;;;;;2105518;28;20099;-69
2021/07/16 02:32:54;;;;;;;14.48;6.30;;;19.90;99.90;;;;;;2106468;28;20024;-69
2021/07/16 02:33:55;;;;;;;13.48;6.25;;;19.90;99.90;;;;;;2106338;28;20024;-69
2021/07/16 02:34:56;;;;;;;15.80;6.10;;;19.90;99.90;;;;;;2105227;28;20498;-69
2021/07/16 02:35:57;;;;;;;17.50;7.05;;;19.90;99.90;;;;;;2105529;28;20020;-69
2021/07/16 02:36:57;;;;;;;15.48;6.95;;;19.90;99.90;;;;;;2106243;28;20024;-69
2021/07/16 02:38:03;;;;;;;17.92;7.78;;;19.90;99.90;;;;;;2106128;28;20056;-69
2021/07/16 02:39:04;;;;;;;12.27;6.63;;;19.80;99.90;;;;;;2106267;28;20028;-69
2021/07/16 02:40:07;;;;;;;17.50;7.18;;;19.90;99.90;;;;;;2105926;28;20024;-69
2021/07/16 02:41:07;;;;;;;14.55;7.10;;;19.90;99.90;;;;;;2106241;28;20028;-69
2021/07/16 02:42:08;;;;;;;14.85;7.07;;;19.90;99.90;;;;;;2105511;28;20065;-69
2021/07/16 02:43:09;;;;;;;13.48;7.47;;;19.90;99.90;;;;;;2106301;28;20471;-69
2021/07/16 02:44:09;;;;;;;22.45;7.93;;;19.90;99.90;;;;;;2106185;28;20024;-69
2021/07/16 02:45:14;;;;;;;17.75;7.30;;;19.90;99.90;;;;;;2106242;28;20486;-69
2021/07/16 02:46:14;;;;;;;17.23;7.13;;;19.80;99.90;;;;;;2106032;28;20024;-69
2021/07/16 02:47:15;;;;;;;15.10;7.22;;;19.80;99.90;;;;;;2106133;28;20012;-69
2021/07/16 02:48:16;;;;;;;16.40;7.13;;;19.80;99.90;;;;;;2105994;28;20034;-69
2021/07/16 02:49:16;;;;;;;16.77;7.25;;;19.80;99.90;;;;;;2106097;28;20024;-69
2021/07/16 02:50:27;;;;;;;20.70;6.90;;;19.80;99.90;;;;;;2105861;28;20064;-69
2021/07/16 02:51:27;;;;;;;;;;;19.80;99.90;;;;;;2105594;28;20039;-69
2021/07/16 02:52:28;;;;;;;16.02;7.43;;;19.70;99.90;;;;;;2105159;28;20335;-69
2021/07/16 02:53:28;;;;;;;20.02;7.78;;;19.70;99.90;;;;;;2106340;28;20028;-69
2021/07/16 02:54:29;;;;;;;17.77;7.22;;;19.70;99.90;;;;;;2105965;28;20031;-69
2021/07/16 02:55:30;;;;;;;14.70;7.20;;;19.70;99.90;;;;;;2106214;28;20079;-69
2021/07/16 02:56:30;;;;;;;14.32;7.38;;;19.70;99.90;;;;;;2105729;28;20024;-70
2021/07/16 02:57:31;;;;;;;18.90;7.93;;;19.70;99.90;;;;;;2105834;28;20119;-70
2021/07/16 02:58:32;;;;;;;11.77;7.03;;;19.70;99.90;;;;;;2106121;28;20503;-69
2021/07/16 02:59:32;;;;;;;17.13;7.85;;;19.70;99.90;;;;;;2105944;28;20445;-69
2021/07/16 03:00:34;;;;;;;21.77;8.27;;;19.70;99.90;;;;;;2105862;28;20036;-69
2021/07/16 03:01:53;;;;;;;16.70;8.45;;;19.70;99.90;;;;;;2105692;28;20024;-69
2021/07/16 03:02:54;;;;;;;26.52;8.10;;;19.70;99.90;;;;;;2105866;28;20042;-69
2021/07/16 03:03:54;;;;;;;17.88;7.72;;;19.70;99.90;;;;;;2106134;28;20050;-69
2021/07/16 03:04:56;;;;;;;16.15;8.05;;;19.70;99.90;;;;;;2105920;28;20413;-70
2021/07/16 03:05:56;;;;;;;21.63;8.20;;;19.70;99.90;;;;;;2105877;28;20154;-69
2021/07/16 03:06:57;;;;;;;24.30;8.32;;;19.60;99.90;;;;;;2105837;28;20016;-69
2021/07/16 03:07:58;;;;;;;21.88;7.95;;;19.60;99.90;;;;;;2113782;28;20069;-69
2021/07/16 03:08:58;;;;;;;14.73;7.70;;;19.60;99.90;;;;;;2113474;28;20031;-69
2021/07/16 03:09:59;;;;;;;11.85;7.25;;;19.60;99.90;;;;;;2105328;28;20016;-69
2021/07/16 03:10:59;;;;;;;18.48;8.00;;;19.60;99.90;;;;;;2105246;28;20110;-69
2021/07/16 03:12:04;;;;;;;20.27;7.53;;;19.60;99.90;;;;;;2105424;28;20091;-69
2021/07/16 03:13:10;;;;;;;17.75;8.05;;;19.60;99.90;;;;;;2105881;28;20024;-69
2021/07/16 03:14:11;;;;;;;16.80;7.68;;;19.70;99.90;;;;;;2105769;28;20016;-69
2021/07/16 03:15:15;;;;;;;14.27;6.85;;;19.60;99.90;;;;;;2105844;28;20467;-69
2021/07/16 03:16:15;;;;;;;17.80;8.32;;;19.60;99.90;;;;;;2106109;28;20103;-69
2021/07/16 03:17:16;;;;;;;15.80;7.47;;;19.60;99.90;;;;;;2105884;28;20032;-69
2021/07/16 03:18:18;;;;;;;12.25;7.93;;;19.60;99.90;;;;;;2106065;28;20036;-69
2021/07/16 03:19:18;;;;;;;17.75;7.10;;;19.60;99.90;;;;;;2105036;28;20072;-69
2021/07/16 03:20:23;;;;;;;17.02;8.13;;;19.60;99.90;;;;;;2105344;28;20050;-69
2021/07/16 03:21:24;;;;;;;17.40;8.15;;;19.60;99.90;;;;;;2105630;28;20028;-69
2021/07/16 03:22:24;;;;;;;15.35;7.32;;;19.60;99.90;;;;;;2105913;28;20085;-69
2021/07/16 03:23:25;;;;;;;17.83;7.65;;;19.60;99.90;;;;;;2105748;28;20020;-69
2021/07/16 03:24:26;;;;;;;19.35;7.97;;;19.60;99.90;;;;;;2105945;28;20073;-69
2021/07/16 03:25:27;;;;;;;22.77;8.35;;;19.60;99.90;;;;;;2111385;28;20072;-69
2021/07/16 03:26:28;;;;;;;13.20;7.60;;;19.60;99.90;;;;;;2113671;28;20020;-69
2021/07/16 03:27:29;;;;;;;18.77;7.93;;;19.60;99.90;;;;;;2114275;28;20020;-69
2021/07/16 03:28:29;;;;;;;19.10;8.25;;;19.60;99.90;;;;;;2113896;28;20104;-69
2021/07/16 03:29:30;;;;;;;16.52;8.38;;;19.60;99.90;;;;;;2113583;28;20048;-69
2021/07/16 03:30:31;;;;;;;14.73;7.75;;;19.60;99.90;;;;;;2105177;28;20021;-69
2021/07/16 03:31:32;;;;;;;23.77;8.45;;;19.60;99.90;;;;;;2112876;28;20028;-69
2021/07/16 03:32:33;;;;;;;14.23;7.22;;;19.60;99.90;;;;;;2114457;28;20020;-69
2021/07/16 03:33:34;;;;;;;15.38;7.05;;;19.60;99.90;;;;;;2114402;28;20383;-69
2021/07/16 03:34:35;;;;;;;17.75;7.00;;;19.60;99.90;;;;;;2114206;28;20027;-69
2021/07/16 03:35:36;;;;;;;17.48;7.57;;;19.60;99.90;;;;;;2114316;28;20058;-69
2021/07/16 03:36:36;;;;;;;18.08;8.38;;;19.60;99.90;;;;;;2104823;28;20456;-69
2021/07/16 03:37:38;;;;;;;13.13;7.65;;;19.60;99.90;;;;;;2097580;28;20020;-69
2021/07/16 03:38:38;;;;;;;11.18;6.82;;;19.60;99.90;;;;;;2105378;28;20024;-70
2021/07/16 03:39:39;;;;;;;24.00;7.68;;;19.60;99.90;;;;;;2105067;28;20059;-69
2021/07/16 03:40:40;;;;;;;17.23;8.05;;;19.60;99.90;;;;;;2105218;28;20384;-69
2021/07/16 03:41:42;;;;;;;13.63;7.15;;;19.60;99.90;;;;;;2105165;28;20114;-70
2021/07/16 03:42:44;;;;;;;12.40;7.13;;;19.60;99.90;;;;;;2105746;28;20031;-69
2021/07/16 03:43:44;;;;;;;16.50;7.80;;;19.60;99.90;;;;;;2105976;28;20020;-69
2021/07/16 03:44:45;;;;;;;14.63;7.97;;;19.60;99.90;;;;;;2105801;28;20027;-70
2021/07/16 03:45:46;;;;;;;18.67;7.90;;;19.60;99.90;;;;;;2105812;28;20024;-69
2021/07/16 03:46:46;;;;;;;17.08;8.30;;;19.60;99.90;;;;;;2105843;28;20024;-69
2021/07/16 03:47:48;;;;;;;18.33;7.40;;;19.60;99.90;;;;;;2105756;28;20028;-69
2021/07/16 03:48:48;;;;;;;11.70;7.13;;;19.70;99.90;;;;;;2105808;28;20027;-69
2021/07/16 03:49:49;;;;;;;18.27;6.95;;;19.70;99.90;;;;;;2105894;28;20030;-69
2021/07/16 03:50:49;;;;;;;14.80;7.47;;;19.70;99.90;;;;;;2105632;28;20024;-69
2021/07/16 03:51:50;;;;;;;12.75;7.70;;;19.70;99.90;;;;;;2105500;28;20032;-69
2021/07/16 03:52:51;;;;;;;13.38;7.68;;;19.70;99.90;;;;;;2105747;28;20024;-69
2021/07/16 03:53:52;;;;;;;14.77;7.30;;;19.70;99.90;;;;;;2105924;28;20412;-69
2021/07/16 03:54:52;;;;;;;12.35;7.20;;;19.70;99.90;;;;;;2105599;28;20043;-69
2021/07/16 03:55:53;;;;;;;12.40;6.95;;;19.70;99.90;;;;;;2105728;28;20099;-69
2021/07/16 03:56:53;;;;;;;17.65;7.88;;;19.80;99.90;;;;;;2105698;28;20060;-69
2021/07/16 03:57:54;;;;;;;14.77;7.78;;;19.70;99.90;;;;;;2105838;28;20032;-69
2021/07/16 03:58:54;;;;;;;14.38;7.88;;;19.70;99.90;;;;;;2105451;28;20025;-69
2021/07/16 03:59:56;;;;;;;16.75;7.15;;;19.80;99.90;;;;;;2106024;28;20020;-69
2021/07/16 04:00:56;;;;;;;13.57;7.28;;;19.70;99.90;;;;;;2105571;28;20082;-69
2021/07/16 04:01:57;;;;;;;13.70;7.68;;;19.70;99.90;;;;;;2105319;28;20032;-69
2021/07/16 04:03:00;;;;;;;14.07;7.47;;;19.70;99.90;;;;;;2105773;28;20066;-69
2021/07/16 04:04:00;;;;;;;17.02;8.32;;;19.80;99.90;;;;;;2105749;28;20016;-70
2021/07/16 04:05:01;;;;;;;10.73;6.93;;;19.70;99.90;;;;;;2105682;28;20012;-70
2021/07/16 04:06:02;;;;;;;16.08;7.93;;;19.70;99.90;;;;;;2105753;28;20017;-69
2021/07/16 04:07:05;;;;;;;16.85;7.53;;;19.80;99.90;;;;;;2105555;28;20056;-70
2021/07/16 04:08:06;;;;;;;16.52;8.15;;;19.80;99.90;;;;;;2106047;28;20405;-70
2021/07/16 04:09:20;;;;;;;18.27;7.93;;;19.70;99.90;;;;;;2105609;28;20028;-69
2021/07/16 04:10:22;;;;;;;13.82;6.88;;;19.80;99.90;;;;;;2105475;28;20032;-69
2021/07/16 04:11:23;;;;;;;15.93;7.65;;;19.80;99.90;;;;;;2105270;28;20031;-69
2021/07/16 04:12:24;;;;;;;16.55;7.93;;;19.80;99.90;;;;;;2105677;28;20467;-69
2021/07/16 04:13:24;;;;;;;19.55;7.43;;;19.70;99.90;;;;;;2104895;28;20093;-69
2021/07/16 04:14:25;;;;;;;13.40;7.80;;;19.70;99.90;;;;;;2105178;28;20028;-69
2021/07/16 04:15:26;;;;;;;15.30;7.80;;;19.70;99.90;;;;;;2105680;28;20343;-69
2021/07/16 04:16:26;;;;;;;15.75;7.57;;;19.70;99.90;;;;;;2105313;28;20043;-69
2021/07/16 04:17:27;;;;;;;13.95;7.70;;;19.70;99.90;;;;;;2105503;28;20031;-69
2021/07/16 04:18:27;;;;;;;16.77;8.02;;;19.70;99.90;;;;;;2105701;28;20030;-69
2021/07/16 04:19:28;;;;;;;10.73;6.95;;;19.70;99.90;;;;;;2105646;28;20028;-69
2021/07/16 04:20:30;;;;;;;19.45;8.48;;;19.70;99.90;;;;;;2105789;28;20028;-69
2021/07/16 04:21:30;;;;;;;14.98;7.50;;;19.70;99.90;;;;;;2104952;28;20052;-69
2021/07/16 04:22:31;;;;;;;13.05;7.28;;;19.70;99.90;;;;;;2105836;28;20028;-69
2021/07/16 04:23:31;;;;;;;11.00;7.03;;;19.60;99.90;;;;;;2105591;28;20048;-69
2021/07/16 04:24:39;;;;;;;12.95;6.95;;;19.60;99.90;;;;;;2105604;28;20482;-69
2021/07/16 04:25:39;;;;;;;12.80;7.38;;;19.60;99.90;;;;;;2105341;28;20470;-69
2021/07/16 04:26:40;;;;;;;13.48;7.25;;;19.60;99.90;;;;;;2105444;28;20414;-69
2021/07/16 04:27:41;;;;;;;10.27;6.60;;;19.60;99.90;;;;;;2105662;28;20055;-69
2021/07/16 04:28:42;;;;;;;12.98;7.78;;;19.50;99.90;;;;;;2105647;28;20027;-70
2021/07/16 04:29:43;;;;;;;11.40;6.55;;;19.60;99.90;;;;;;2105660;28;20092;-69
2021/07/16 04:30:44;;;;;;;12.77;7.15;;;19.50;99.90;;;;;;2105539;28;20024;-69
2021/07/16 04:31:45;;;;;;;10.20;7.20;;;19.50;99.90;;;;;;2105249;28;20020;-69
2021/07/16 04:32:47;;;;;;;15.60;6.65;;;19.50;99.90;;;;;;2105581;28;20069;-69
2021/07/16 04:33:47;;;;;;;17.92;7.32;;;19.50;99.90;;;;;;2105805;28;20027;-69
2021/07/16 04:34:48;;;;;;;11.10;6.57;;;19.50;99.90;;;;;;2105457;28;20103;-69
2021/07/16 04:35:48;;;;;;;13.68;6.95;;;19.50;99.90;;;;;;2105720;28;20463;-69
2021/07/16 04:36:49;;;;;;;10.50;7.10;;;19.50;99.90;;;;;;2105516;28;20027;-69
2021/07/16 04:37:50;;;;;;;12.60;7.50;;;19.50;99.90;;;;;;2106872;28;20042;-70
2021/07/16 04:38:51;;;;;;;11.23;6.88;;;19.50;99.90;;;;;;2107130;28;20111;-69
2021/07/16 04:39:51;;;;;;;13.80;7.10;;;19.50;99.90;;;;;;2107211;28;20020;-69
2021/07/16 04:40:52;;;;;;;9.00;6.30;;;19.50;99.90;;;;;;2106917;28;20039;-69
2021/07/16 04:41:52;;;;;;;11.45;6.93;;;19.40;99.90;;;;;;2106495;28;20563;-69
2021/07/16 04:42:55;;;;;;;11.13;6.38;;;19.40;99.90;;;;;;2106964;28;20032;-69
2021/07/16 04:43:56;;;;;;;13.05;7.72;;;19.40;99.90;;;;;;2107186;28;20451;-70
2021/07/16 04:44:57;;;;;;;11.93;6.80;;;19.40;99.90;;;;;;2106953;28;20094;-69
2021/07/16 04:45:57;;;;;;;15.27;7.55;;;19.40;99.90;;;;;;2107010;28;20471;-69
2021/07/16 04:46:59;;;;;;;12.30;6.80;;;19.40;99.90;;;;;;2107046;28;20050;-70
2021/07/16 04:47:59;;;;;;;11.55;6.07;;;19.40;99.90;;;;;;2107000;28;20032;-69
2021/07/16 04:49:00;;;;;;;8.90;6.70;;;19.40;99.90;;;;;;2106702;28;20052;-69
2021/07/16 04:50:01;;;;;;;13.40;6.85;;;19.40;99.90;;;;;;2107318;28;20070;-69
2021/07/16 04:51:01;;;;;;;10.00;6.88;;;19.40;99.90;;;;;;2106825;28;20073;-69
2021/07/16 04:52:02;;;;;;;13.68;7.63;;;19.40;99.90;;;;;;2106519;28;20032;-69
2021/07/16 04:53:03;;;;;;;11.07;6.97;;;19.40;99.90;;;;;;2106864;28;20031;-69
2021/07/16 04:54:06;;;;;;;10.60;7.22;;;19.40;99.90;;;;;;2107131;28;20028;-69
2021/07/16 04:55:07;;;;;;;10.90;6.82;;;19.40;99.90;;;;;;2106643;28;20116;-69
2021/07/16 04:56:07;;;;;;;10.70;6.93;;;19.40;99.90;;;;;;2106127;28;20031;-69
2021/07/16 04:57:08;;;;;;;10.80;6.80;;;19.40;99.90;;;;;;2106221;28;20059;-69
2021/07/16 04:58:09;;;;;;;13.65;7.68;;;19.40;99.90;;;;;;2107090;28;20489;-69
2021/07/16 04:59:10;;;;;;;12.10;7.30;;;19.40;99.90;;;;;;2106676;28;20411;-69
2021/07/16 05:00:12;;;;;;;10.18;7.55;;;19.40;99.90;;;;;;2107060;28;20048;-69
2021/07/16 05:01:12;;;;;;;11.32;7.82;;;19.40;99.90;;;;;;2106760;28;20024;-69
2021/07/16 05:02:13;;;;;;;10.52;6.30;;;19.40;99.90;;;;;;2105884;28;20020;-69
2021/07/16 05:03:13;;;;;;;11.57;6.82;;;19.40;99.90;;;;;;2105862;28;20487;-69
2021/07/16 05:04:15;;;;;;;12.10;7.55;;;19.40;99.90;;;;;;2107051;28;20027;-69
2021/07/16 05:05:15;;;;;;;12.98;7.70;;;19.40;99.90;;;;;;2106901;28;20026;-69
2021/07/16 05:06:17;;;;;;;17.95;7.78;;;19.40;99.90;;;;;;2107053;28;20021;-69
2021/07/16 05:07:18;;;;;;;10.80;6.75;;;19.40;99.90;;;;;;2106771;28;20107;-69
2021/07/16 05:08:19;;;;;;;10.95;6.80;;;19.40;99.90;;;;;;2106925;28;20375;-69
2021/07/16 05:09:19;;;;;;;12.45;7.78;;;19.30;99.90;;;;;;2106889;28;20024;-69
2021/07/16 05:10:20;;;;;;;12.48;7.10;;;19.30;99.90;;;;;;2106677;28;20386;-69
2021/07/16 05:11:21;;;;;;;12.38;7.18;;;19.30;99.90;;;;;;2106607;28;20431;-69
2021/07/16 05:12:22;;;;;;;17.98;7.13;;;19.40;99.90;;;;;;2106501;28;20379;-69
2021/07/16 05:13:23;;;;;;;10.80;6.63;;;19.40;99.90;;;;;;2106692;28;20127;-69
2021/07/16 05:14:23;;;;;;;9.82;6.95;;;19.40;99.90;;;;;;2106757;28;20032;-70
2021/07/16 05:15:24;;;;;;;10.35;6.35;;;19.40;99.90;;;;;;2106077;28;20483;-69